createdAt,value
2019-03-31T00:00:38.181Z,15.03
2019-03-31T00:01:43.510Z,13.83
2019-03-31T00:02:47.138Z,13.77
2019-03-31T00:03:50.980Z,11.30
2019-03-31T00:04:54.614Z,15.80
2019-03-31T00:05:58.610Z,12.77
2019-03-31T00:07:02.215Z,12.43
2019-03-31T00:08:05.852Z,14.10
2019-03-31T00:09:09.479Z,14.70
2019-03-31T00:10:13.115Z,14.03
2019-03-31T00:11:16.827Z,14.90
2019-03-31T00:12:20.483Z,12.60
2019-03-31T00:13:24.116Z,13.20
2019-03-31T00:14:27.845Z,15.87
2019-03-31T00:15:31.460Z,14.23
2019-03-31T00:16:35.036Z,14.27
2019-03-31T00:17:38.709Z,15.87
2019-03-31T00:18:42.352Z,11.87
2019-03-31T00:19:45.983Z,13.30
2019-03-31T00:20:50.004Z,14.10
2019-03-31T00:21:53.632Z,13.70
2019-03-31T00:22:57.302Z,11.10
2019-03-31T00:24:00.935Z,13.77
2019-03-31T00:25:06.351Z,12.07
2019-03-31T00:26:09.987Z,12.23
2019-03-31T00:27:13.619Z,13.67
2019-03-31T00:28:17.423Z,14.17
2019-03-31T00:29:21.123Z,12.23
2019-03-31T00:30:25.278Z,15.13
2019-03-31T00:31:28.835Z,11.90
2019-03-31T00:32:32.785Z,13.50
2019-03-31T00:33:36.419Z,13.07
2019-03-31T00:34:40.143Z,13.93
2019-03-31T00:35:43.998Z,11.83
2019-03-31T00:36:48.026Z,11.73
2019-03-31T00:37:51.658Z,13.50
2019-03-31T00:38:55.509Z,13.73
2019-03-31T00:39:59.144Z,11.60
2019-03-31T00:41:02.807Z,12.83
2019-03-31T00:42:06.455Z,11.93
2019-03-31T00:43:10.078Z,12.40
2019-03-31T00:44:13.724Z,11.43
2019-03-31T00:45:17.348Z,12.93
2019-03-31T00:46:21.009Z,13.50
2019-03-31T00:47:24.629Z,11.70
2019-03-31T00:48:28.267Z,12.80
2019-03-31T00:49:31.821Z,14.57
2019-03-31T00:50:35.441Z,16.17
2019-03-31T00:51:39.037Z,13.77
2019-03-31T00:52:42.677Z,13.17
2019-03-31T00:53:46.778Z,10.97
2019-03-31T00:54:50.410Z,9.53
2019-03-31T00:55:53.973Z,12.53
2019-03-31T00:56:57.637Z,12.60
2019-03-31T00:58:01.696Z,13.97
2019-03-31T00:59:05.407Z,12.87
2019-03-31T01:00:11.386Z,12.87
2019-03-31T01:01:20.234Z,11.97
2019-03-31T01:02:25.546Z,13.43
2019-03-31T01:03:29.342Z,12.80
2019-03-31T01:04:33.230Z,14.30
2019-03-31T01:05:39.042Z,12.43
2019-03-31T01:06:42.833Z,13.70
2019-03-31T01:07:47.002Z,14.63
2019-03-31T01:08:50.634Z,13.17
2019-03-31T01:09:56.930Z,14.27
2019-03-31T01:11:03.682Z,12.87
2019-03-31T01:12:07.430Z,12.13
2019-03-31T01:13:13.474Z,14.10
2019-03-31T01:14:17.471Z,13.70
2019-03-31T01:15:24.352Z,13.30
2019-03-31T01:16:29.887Z,14.00
2019-03-31T01:17:33.717Z,13.13
2019-03-31T01:18:37.474Z,15.27
2019-03-31T01:19:41.290Z,14.27
2019-03-31T01:20:45.127Z,14.67
2019-03-31T01:21:48.763Z,12.10
2019-03-31T01:22:52.398Z,14.47
2019-03-31T01:23:56.031Z,12.27
2019-03-31T01:24:59.662Z,12.20
2019-03-31T01:26:03.924Z,14.03
2019-03-31T01:27:10.117Z,13.80
2019-03-31T01:28:13.832Z,13.53
2019-03-31T01:29:18.718Z,18.27
2019-03-31T01:30:23.327Z,12.67
2019-03-31T01:31:28.544Z,14.63
2019-03-31T01:32:32.282Z,13.97
2019-03-31T01:33:35.913Z,12.03
2019-03-31T01:34:39.620Z,13.70
2019-03-31T01:35:43.604Z,16.10
2019-03-31T01:36:47.358Z,13.63
2019-03-31T01:37:51.193Z,11.33
2019-03-31T01:38:54.985Z,12.80
2019-03-31T01:39:58.613Z,12.20
2019-03-31T01:41:02.245Z,10.60
2019-03-31T01:42:06.453Z,12.23
2019-03-31T01:43:10.174Z,11.60
2019-03-31T01:44:13.737Z,13.40
2019-03-31T01:45:17.434Z,13.50
2019-03-31T01:46:22.437Z,13.23
2019-03-31T01:47:26.104Z,11.83
2019-03-31T01:48:29.744Z,13.40
2019-03-31T01:49:33.445Z,12.63
2019-03-31T01:50:37.236Z,14.03
2019-03-31T01:51:40.849Z,14.47
2019-03-31T01:52:44.520Z,14.13
2019-03-31T01:53:48.157Z,13.83
2019-03-31T01:54:51.793Z,15.33
2019-03-31T01:55:55.416Z,13.63
2019-03-31T01:56:59.119Z,13.67
2019-03-31T01:58:02.937Z,13.83
2019-03-31T01:59:06.567Z,13.80
2019-03-31T02:00:12.541Z,14.10
2019-03-31T02:01:17.643Z,13.83
2019-03-31T02:02:23.426Z,12.40
2019-03-31T02:03:27.075Z,15.70
2019-03-31T02:04:30.705Z,12.67
2019-03-31T02:05:34.403Z,13.97
2019-03-31T02:06:38.037Z,16.67
2019-03-31T02:07:41.734Z,18.17
2019-03-31T02:08:45.338Z,14.70
2019-03-31T02:09:48.970Z,16.93
2019-03-31T02:10:53.000Z,16.33
2019-03-31T02:11:56.664Z,15.67
2019-03-31T02:13:00.291Z,16.87
2019-03-31T02:14:04.009Z,15.17
2019-03-31T02:15:08.263Z,12.97
2019-03-31T02:16:11.889Z,14.60
2019-03-31T02:17:15.619Z,13.50
2019-03-31T02:18:19.260Z,13.40
2019-03-31T02:19:22.928Z,13.43
2019-03-31T02:20:26.581Z,15.27
2019-03-31T02:21:30.220Z,12.57
2019-03-31T02:22:33.883Z,15.20
2019-03-31T02:23:38.603Z,15.97
2019-03-31T02:24:42.231Z,15.43
2019-03-31T02:25:45.981Z,16.53
2019-03-31T02:26:49.636Z,15.37
2019-03-31T02:27:53.982Z,17.40
2019-03-31T02:28:57.617Z,16.70
2019-03-31T02:30:01.265Z,16.53
2019-03-31T02:31:04.933Z,14.10
2019-03-31T02:32:22.490Z,16.87
2019-03-31T02:33:13.925Z,14.70
2019-03-31T02:34:17.490Z,15.07
2019-03-31T02:35:21.107Z,14.17
2019-03-31T02:36:24.779Z,15.23
2019-03-31T02:37:28.410Z,13.07
2019-03-31T02:38:32.051Z,15.97
2019-03-31T02:39:35.674Z,16.03
2019-03-31T02:40:39.687Z,15.80
2019-03-31T02:41:43.370Z,14.73
2019-03-31T02:42:46.995Z,14.63
2019-03-31T02:43:50.627Z,14.03
2019-03-31T02:44:54.259Z,14.77
2019-03-31T02:45:57.974Z,13.20
2019-03-31T02:47:01.647Z,15.00
2019-03-31T02:48:05.563Z,14.27
2019-03-31T02:49:09.202Z,14.03
2019-03-31T02:50:15.741Z,16.37
2019-03-31T02:51:19.371Z,14.20
2019-03-31T02:52:23.044Z,11.50
2019-03-31T02:53:26.675Z,12.97
2019-03-31T02:54:30.629Z,15.53
2019-03-31T02:55:34.350Z,13.13
2019-03-31T02:56:38.983Z,14.53
2019-03-31T02:57:44.061Z,13.20
2019-03-31T02:58:47.807Z,17.10
2019-03-31T02:59:51.944Z,13.43
2019-03-31T03:00:56.091Z,13.10
2019-03-31T03:02:01.259Z,11.90
2019-03-31T03:03:04.930Z,12.90
2019-03-31T03:04:09.664Z,14.63
2019-03-31T03:05:19.683Z,13.90
2019-03-31T03:06:22.038Z,12.20
2019-03-31T03:07:27.018Z,17.33
2019-03-31T03:08:33.228Z,13.23
2019-03-31T03:09:37.248Z,12.43
2019-03-31T03:10:43.388Z,11.27
2019-03-31T03:11:48.909Z,10.07
2019-03-31T03:12:53.888Z,14.10
2019-03-31T03:13:59.630Z,11.00
2019-03-31T03:15:05.516Z,15.73
2019-03-31T03:16:17.506Z,9.87
2019-03-31T03:17:21.140Z,13.43
2019-03-31T03:18:24.756Z,11.93
2019-03-31T03:19:28.425Z,14.63
2019-03-31T03:20:32.060Z,12.73
2019-03-31T03:21:35.700Z,11.67
2019-03-31T03:22:39.325Z,11.70
2019-03-31T03:23:42.969Z,17.30
2019-03-31T03:24:46.562Z,14.43
2019-03-31T03:25:56.549Z,15.73
2019-03-31T03:26:55.540Z,16.63
2019-03-31T03:27:59.179Z,12.80
2019-03-31T03:29:02.817Z,14.33
2019-03-31T03:30:07.701Z,14.00
2019-03-31T03:31:15.915Z,16.10
2019-03-31T03:32:16.655Z,16.00
2019-03-31T03:33:20.434Z,16.63
2019-03-31T03:34:24.258Z,16.33
2019-03-31T03:35:27.939Z,13.60
2019-03-31T03:36:31.574Z,15.43
2019-03-31T03:37:35.197Z,14.60
2019-03-31T03:38:38.834Z,13.50
2019-03-31T03:39:42.468Z,12.17
2019-03-31T03:40:46.133Z,13.20
2019-03-31T03:41:49.720Z,17.33
2019-03-31T03:42:53.318Z,16.13
2019-03-31T03:44:01.975Z,15.27
2019-03-31T03:45:02.315Z,17.13
2019-03-31T03:46:06.051Z,14.50
2019-03-31T03:47:09.676Z,17.37
2019-03-31T03:48:13.232Z,13.43
2019-03-31T03:49:17.018Z,34.33
2019-03-31T03:50:20.908Z,41.67
2019-03-31T03:51:24.546Z,40.67
2019-03-31T03:52:28.175Z,42.33
2019-03-31T03:53:31.823Z,40.93
2019-03-31T03:54:35.437Z,47.57
2019-03-31T03:55:39.078Z,44.63
2019-03-31T03:56:42.766Z,35.37
2019-03-31T03:57:46.396Z,28.53
2019-03-31T03:58:50.036Z,22.13
2019-03-31T03:59:53.679Z,27.13
2019-03-31T04:00:57.305Z,20.07
2019-03-31T04:02:00.978Z,17.03
2019-03-31T04:03:04.617Z,21.13
2019-03-31T04:04:08.248Z,17.97
2019-03-31T04:05:11.900Z,17.40
2019-03-31T04:06:15.532Z,14.07
2019-03-31T04:07:19.227Z,18.90
2019-03-31T04:08:22.839Z,17.43
2019-03-31T04:09:26.465Z,18.50
2019-03-31T04:10:45.406Z,17.07
2019-03-31T04:11:48.960Z,15.07
2019-03-31T04:12:52.659Z,17.77
2019-03-31T04:13:56.773Z,19.13
2019-03-31T04:15:00.602Z,15.03
2019-03-31T04:16:04.315Z,16.00
2019-03-31T04:17:07.941Z,14.30
2019-03-31T04:18:11.604Z,14.70
2019-03-31T04:19:15.168Z,14.63
2019-03-31T04:20:18.819Z,15.00
2019-03-31T04:21:22.430Z,16.60
2019-03-31T04:22:26.070Z,18.13
2019-03-31T04:23:29.666Z,16.57
2019-03-31T04:24:34.192Z,14.57
2019-03-31T04:25:37.720Z,15.93
2019-03-31T04:26:41.691Z,17.97
2019-03-31T04:27:45.328Z,15.97
2019-03-31T04:28:48.997Z,15.10
2019-03-31T04:29:52.628Z,16.43
2019-03-31T04:30:56.269Z,16.03
2019-03-31T04:31:59.901Z,16.90
2019-03-31T04:33:03.524Z,14.07
2019-03-31T04:34:07.251Z,14.63
2019-03-31T04:35:10.991Z,16.83
2019-03-31T04:36:14.607Z,16.00
2019-03-31T04:37:18.243Z,14.90
2019-03-31T04:38:21.817Z,15.80
2019-03-31T04:39:25.470Z,14.73
2019-03-31T04:40:29.108Z,20.37
2019-03-31T04:41:32.820Z,29.33
2019-03-31T04:42:36.380Z,35.33
2019-03-31T04:43:40.011Z,40.40
2019-03-31T04:44:43.684Z,33.97
2019-03-31T04:45:47.326Z,34.90
2019-03-31T04:46:50.948Z,28.83
2019-03-31T04:47:54.594Z,35.70
2019-03-31T04:48:58.150Z,36.60
2019-03-31T04:50:01.826Z,28.97
2019-03-31T04:51:05.757Z,30.77
2019-03-31T04:52:09.391Z,30.57
2019-03-31T04:53:12.954Z,36.07
2019-03-31T04:54:16.589Z,35.73
2019-03-31T04:55:20.262Z,33.70
2019-03-31T04:56:23.898Z,32.97
2019-03-31T04:57:27.533Z,30.37
2019-03-31T04:58:31.169Z,34.13
2019-03-31T04:59:34.827Z,33.13
2019-03-31T05:00:38.616Z,32.70
2019-03-31T05:01:42.454Z,35.13
2019-03-31T05:02:46.022Z,30.27
2019-03-31T05:04:03.402Z,36.63
2019-03-31T05:04:55.005Z,33.67
2019-03-31T05:05:58.671Z,30.87
2019-03-31T05:07:02.296Z,31.20
2019-03-31T05:08:06.856Z,30.23
2019-03-31T05:09:10.427Z,27.13
2019-03-31T05:10:14.187Z,29.63
2019-03-31T05:11:17.915Z,32.57
2019-03-31T05:12:21.556Z,33.33
2019-03-31T05:13:25.564Z,27.67
2019-03-31T05:14:29.200Z,33.73
2019-03-31T05:15:32.912Z,35.53
2019-03-31T05:16:36.582Z,34.87
2019-03-31T05:17:40.232Z,30.40
2019-03-31T05:18:43.867Z,31.13
2019-03-31T05:19:47.507Z,29.60
2019-03-31T05:20:51.149Z,27.97
2019-03-31T05:21:54.831Z,27.27
2019-03-31T05:23:12.199Z,33.27
2019-03-31T05:24:15.845Z,34.33
2019-03-31T05:25:19.497Z,43.97
2019-03-31T05:26:23.256Z,45.00
2019-03-31T05:27:26.976Z,40.07
2019-03-31T05:28:30.761Z,43.97
2019-03-31T05:29:35.837Z,36.33
2019-03-31T05:30:39.562Z,34.73
2019-03-31T05:31:44.544Z,35.47
2019-03-31T05:33:09.358Z,40.17
2019-03-31T05:34:19.346Z,40.40
2019-03-31T05:35:18.378Z,40.65
2019-03-31T05:36:22.023Z,40.10
2019-03-31T05:37:25.663Z,40.35
2019-03-31T05:38:29.494Z,40.17
2019-03-31T05:39:33.159Z,37.63
2019-03-31T05:40:36.809Z,48.08
2019-03-31T05:41:40.696Z,44.35
2019-03-31T05:42:45.860Z,47.53
2019-03-31T05:43:49.512Z,42.43
2019-03-31T05:44:53.145Z,43.43
2019-03-31T05:45:57.086Z,40.63
2019-03-31T05:47:00.767Z,45.07
2019-03-31T05:48:04.479Z,39.33
2019-03-31T05:49:08.434Z,41.08
2019-03-31T05:50:12.368Z,42.83
2019-03-31T05:51:16.090Z,39.23
2019-03-31T05:52:19.782Z,41.18
2019-03-31T05:53:23.461Z,44.47
2019-03-31T05:54:27.523Z,34.63
2019-03-31T05:55:31.156Z,32.73
2019-03-31T05:56:34.793Z,34.07
2019-03-31T05:57:38.443Z,32.40
2019-03-31T05:58:42.759Z,31.63
2019-03-31T05:59:46.479Z,30.03
2019-03-31T06:00:50.404Z,28.13
2019-03-31T06:01:55.806Z,29.50
2019-03-31T06:02:59.518Z,28.20
2019-03-31T06:04:03.450Z,31.30
2019-03-31T06:05:07.489Z,34.13
2019-03-31T06:06:11.123Z,32.63
2019-03-31T06:07:14.722Z,33.90
2019-03-31T06:08:18.355Z,36.47
2019-03-31T06:09:22.196Z,35.17
2019-03-31T06:10:32.040Z,39.87
2019-03-31T06:11:35.603Z,33.27
2019-03-31T06:12:39.169Z,38.23
2019-03-31T06:13:43.178Z,31.80
2019-03-31T06:14:46.847Z,29.17
2019-03-31T06:15:50.549Z,29.80
2019-03-31T06:16:54.191Z,30.80
2019-03-31T06:17:57.825Z,29.60
2019-03-31T06:19:01.453Z,31.53
2019-03-31T06:20:06.529Z,30.23
2019-03-31T06:21:10.160Z,33.07
2019-03-31T06:22:13.811Z,30.43
2019-03-31T06:23:17.455Z,30.00
2019-03-31T06:24:21.088Z,28.80
2019-03-31T06:25:24.760Z,30.77
2019-03-31T06:26:28.332Z,28.90
2019-03-31T06:27:37.823Z,28.63
2019-03-31T06:28:41.464Z,28.37
2019-03-31T06:29:45.108Z,31.83
2019-03-31T06:30:50.257Z,30.47
2019-03-31T06:31:53.883Z,33.27
2019-03-31T06:32:58.988Z,29.97
2019-03-31T06:34:02.750Z,33.00
2019-03-31T06:35:06.698Z,29.40
2019-03-31T06:36:13.121Z,32.97
2019-03-31T06:37:16.722Z,34.80
2019-03-31T06:38:20.447Z,29.63
2019-03-31T06:39:24.028Z,33.00
2019-03-31T06:40:28.055Z,36.13
2019-03-31T06:41:31.632Z,33.90
2019-03-31T06:42:35.257Z,32.43
2019-03-31T06:43:38.858Z,28.80
2019-03-31T06:44:42.499Z,36.97
2019-03-31T06:45:46.137Z,31.03
2019-03-31T06:46:49.768Z,32.60
2019-03-31T06:47:53.326Z,33.53
2019-03-31T06:48:57.330Z,31.33
2019-03-31T06:50:00.960Z,31.80
2019-03-31T06:51:04.599Z,31.07
2019-03-31T06:52:08.233Z,30.03
2019-03-31T06:53:12.174Z,29.93
2019-03-31T06:54:15.844Z,32.30
2019-03-31T06:55:19.493Z,32.60
2019-03-31T06:56:23.172Z,30.03
2019-03-31T06:57:26.911Z,28.03
2019-03-31T06:58:30.553Z,25.00
2019-03-31T06:59:34.203Z,26.70
2019-03-31T07:00:37.895Z,24.50
2019-03-31T07:01:42.726Z,27.03
2019-03-31T07:02:46.290Z,22.53
2019-03-31T07:03:49.939Z,22.43
2019-03-31T07:05:00.886Z,26.17
2019-03-31T07:05:58.937Z,26.50
2019-03-31T07:07:02.633Z,24.50
2019-03-31T07:08:06.271Z,25.43
2019-03-31T07:09:09.910Z,22.37
2019-03-31T07:10:13.561Z,23.10
2019-03-31T07:11:17.549Z,24.90
2019-03-31T07:12:21.185Z,25.53
2019-03-31T07:13:24.830Z,21.00
2019-03-31T07:14:28.471Z,23.07
2019-03-31T07:15:32.203Z,27.67
2019-03-31T07:16:36.160Z,20.27
2019-03-31T07:17:39.795Z,22.80
2019-03-31T07:18:43.442Z,24.07
2019-03-31T07:19:47.085Z,23.90
2019-03-31T07:20:51.274Z,26.73
2019-03-31T07:21:54.903Z,22.40
2019-03-31T07:22:58.568Z,20.50
2019-03-31T07:24:02.207Z,22.97
2019-03-31T07:25:08.161Z,24.37
2019-03-31T07:26:11.843Z,22.53
2019-03-31T07:27:17.146Z,23.27
2019-03-31T07:28:20.790Z,22.73
2019-03-31T07:29:24.423Z,23.07
2019-03-31T07:30:27.996Z,21.00
2019-03-31T07:31:31.657Z,22.13
2019-03-31T07:32:35.298Z,27.13
2019-03-31T07:33:38.868Z,25.10
2019-03-31T07:34:42.511Z,20.43
2019-03-31T07:35:46.161Z,19.43
2019-03-31T07:36:49.822Z,18.10
2019-03-31T07:37:53.453Z,20.37
2019-03-31T07:38:57.419Z,21.23
2019-03-31T07:40:01.537Z,24.57
2019-03-31T07:41:12.618Z,19.17
2019-03-31T07:42:10.957Z,23.43
2019-03-31T07:43:14.715Z,20.00
2019-03-31T07:44:18.568Z,17.33
2019-03-31T07:45:22.296Z,18.37
2019-03-31T07:46:25.930Z,21.00
2019-03-31T07:47:30.847Z,18.93
2019-03-31T07:48:34.500Z,19.40
2019-03-31T07:49:38.191Z,20.20
2019-03-31T07:50:41.910Z,16.60
2019-03-31T07:51:45.555Z,18.57
2019-03-31T07:52:49.238Z,19.50
2019-03-31T07:53:52.881Z,18.10
2019-03-31T07:54:56.529Z,19.80
2019-03-31T07:56:00.185Z,20.57
2019-03-31T07:57:06.813Z,18.93
2019-03-31T07:58:09.267Z,18.57
2019-03-31T07:59:12.991Z,17.43
2019-03-31T08:00:21.899Z,16.53
2019-03-31T08:01:25.508Z,19.63
2019-03-31T08:02:29.218Z,18.10
2019-03-31T08:03:32.893Z,22.17
2019-03-31T08:04:36.538Z,17.73
2019-03-31T08:05:40.186Z,23.90
2019-03-31T08:06:43.842Z,17.67
2019-03-31T08:07:47.482Z,14.87
2019-03-31T08:08:53.378Z,17.17
2019-03-31T08:09:56.523Z,19.13
2019-03-31T08:11:00.509Z,15.90
2019-03-31T08:12:04.150Z,17.23
2019-03-31T08:13:07.800Z,15.03
2019-03-31T08:14:11.469Z,15.13
2019-03-31T08:15:15.314Z,17.87
2019-03-31T08:16:18.948Z,14.37
2019-03-31T08:17:22.587Z,16.47
2019-03-31T08:18:26.228Z,16.70
2019-03-31T08:19:29.905Z,19.60
2019-03-31T08:20:33.541Z,17.33
2019-03-31T08:21:37.183Z,14.47
2019-03-31T08:22:41.174Z,14.30
2019-03-31T08:23:44.815Z,16.10
2019-03-31T08:24:48.415Z,13.60
2019-03-31T08:25:52.080Z,15.87
2019-03-31T08:26:55.969Z,16.80
2019-03-31T08:27:59.521Z,14.17
2019-03-31T08:29:03.241Z,13.60
2019-03-31T08:30:10.370Z,14.43
2019-03-31T08:31:14.014Z,14.73
2019-03-31T08:32:17.690Z,12.77
2019-03-31T08:33:21.317Z,13.90
2019-03-31T08:34:24.985Z,15.33
2019-03-31T08:35:28.616Z,11.23
2019-03-31T08:36:35.196Z,12.00
2019-03-31T08:37:37.571Z,10.60
2019-03-31T08:38:41.204Z,10.33
2019-03-31T08:39:44.844Z,13.30
2019-03-31T08:40:48.476Z,10.40
2019-03-31T08:41:51.981Z,12.77
2019-03-31T08:42:55.588Z,13.63
2019-03-31T08:43:59.218Z,17.63
2019-03-31T08:45:02.851Z,11.83
2019-03-31T08:46:06.486Z,12.03
2019-03-31T08:47:10.693Z,10.93
2019-03-31T08:48:14.373Z,10.63
2019-03-31T08:49:18.009Z,8.20
2019-03-31T08:50:21.636Z,9.00
2019-03-31T08:51:25.666Z,8.60
2019-03-31T08:52:29.303Z,10.87
2019-03-31T08:53:32.971Z,11.47
2019-03-31T08:54:36.920Z,11.10
2019-03-31T08:55:40.572Z,12.78
2019-03-31T08:56:44.207Z,10.38
2019-03-31T08:57:47.847Z,7.58
2019-03-31T08:58:51.452Z,10.00
2019-03-31T08:59:55.075Z,7.47
2019-03-31T09:02:24.765Z,8.13
2019-03-31T09:03:28.398Z,9.83
2019-03-31T09:04:32.307Z,7.90
2019-03-31T09:05:35.943Z,7.17
2019-03-31T09:06:39.576Z,9.13
2019-03-31T09:07:43.130Z,6.78
2019-03-31T09:08:46.774Z,7.40
2019-03-31T09:09:50.440Z,5.67
2019-03-31T09:10:54.006Z,5.92
2019-03-31T09:11:57.644Z,6.08
2019-03-31T09:13:01.234Z,5.85
2019-03-31T09:14:05.383Z,7.87
2019-03-31T09:15:11.809Z,7.03
2019-03-31T09:16:15.444Z,11.50
2019-03-31T09:17:19.076Z,8.20
2019-03-31T09:18:22.716Z,7.33
2019-03-31T09:19:26.332Z,8.63
2019-03-31T09:20:29.979Z,7.40
2019-03-31T09:21:33.694Z,5.92
2019-03-31T09:22:37.422Z,6.83
2019-03-31T09:23:41.056Z,9.03
2019-03-31T09:24:46.927Z,5.22
2019-03-31T09:25:50.595Z,6.22
2019-03-31T09:26:54.153Z,8.13
2019-03-31T09:27:57.804Z,6.70
2019-03-31T09:29:01.441Z,9.03
2019-03-31T09:30:10.752Z,7.47
2019-03-31T09:31:14.487Z,7.62
2019-03-31T09:32:18.120Z,10.93
2019-03-31T09:33:21.756Z,7.90
2019-03-31T09:34:25.389Z,9.00
2019-03-31T09:35:29.018Z,5.55
2019-03-31T09:36:32.608Z,8.90
2019-03-31T09:37:36.240Z,7.45
2019-03-31T09:38:39.876Z,5.40
2019-03-31T09:39:43.533Z,6.45
2019-03-31T09:40:47.215Z,5.97
2019-03-31T09:41:50.884Z,13.03
2019-03-31T09:42:54.516Z,8.45
2019-03-31T09:43:58.140Z,9.05
2019-03-31T09:45:01.774Z,10.15
2019-03-31T09:46:05.410Z,9.05
2019-03-31T09:47:09.164Z,9.63
2019-03-31T09:48:12.786Z,11.63
2019-03-31T09:49:16.453Z,9.95
2019-03-31T09:50:20.340Z,7.78
2019-03-31T09:51:23.936Z,8.30
2019-03-31T09:52:31.376Z,8.40
2019-03-31T09:53:34.391Z,11.73
2019-03-31T09:54:38.023Z,7.72
2019-03-31T09:55:41.658Z,14.53
2019-03-31T09:56:45.295Z,9.13
2019-03-31T09:57:48.884Z,9.25
2019-03-31T09:58:52.580Z,7.87
2019-03-31T09:59:57.853Z,12.63
2019-03-31T10:01:08.055Z,9.88
2019-03-31T10:02:14.598Z,8.70
2019-03-31T10:03:18.768Z,10.85
2019-03-31T10:04:22.549Z,9.28
2019-03-31T10:05:27.904Z,9.88
2019-03-31T10:06:48.457Z,8.63
2019-03-31T10:07:52.345Z,8.03
2019-03-31T10:08:56.116Z,8.78
2019-03-31T10:10:00.685Z,9.00
2019-03-31T10:11:14.895Z,8.70
2019-03-31T10:12:18.519Z,8.03
2019-03-31T10:13:22.277Z,8.13
2019-03-31T10:14:26.017Z,8.20
2019-03-31T10:15:30.229Z,8.68
2019-03-31T10:16:33.881Z,7.55
2019-03-31T10:17:37.503Z,8.28
2019-03-31T10:18:41.517Z,7.50
2019-03-31T10:19:45.122Z,7.03
2019-03-31T10:20:48.760Z,8.10
2019-03-31T10:21:52.326Z,9.50
2019-03-31T10:22:56.140Z,7.62
2019-03-31T10:23:59.707Z,7.92
2019-03-31T10:25:07.114Z,7.80
2019-03-31T10:26:31.133Z,7.58
2019-03-31T10:27:22.319Z,6.72
2019-03-31T10:28:25.944Z,7.25
2019-03-31T10:29:29.577Z,11.20
2019-03-31T10:30:42.764Z,8.45
2019-03-31T10:31:50.786Z,8.13
2019-03-31T10:32:54.419Z,6.28
2019-03-31T10:33:58.051Z,7.45
2019-03-31T10:35:01.687Z,8.20
2019-03-31T10:36:05.427Z,9.13
2019-03-31T10:37:09.066Z,9.25
2019-03-31T10:38:12.744Z,8.88
2019-03-31T10:39:16.437Z,9.03
2019-03-31T10:40:21.587Z,9.05
2019-03-31T10:41:25.412Z,8.40
2019-03-31T10:42:29.060Z,9.03
2019-03-31T10:43:32.705Z,6.97
2019-03-31T10:44:37.924Z,7.25
2019-03-31T10:45:41.688Z,9.28
2019-03-31T10:46:49.413Z,8.38
2019-03-31T10:47:53.072Z,7.42
2019-03-31T10:48:56.794Z,7.20
2019-03-31T10:50:00.415Z,9.58
2019-03-31T10:51:04.147Z,6.90
2019-03-31T10:52:07.781Z,7.90
2019-03-31T10:53:14.528Z,8.30
2019-03-31T10:54:18.364Z,6.55
2019-03-31T10:55:21.999Z,7.42
2019-03-31T10:56:25.641Z,7.90
2019-03-31T10:57:29.270Z,7.55
2019-03-31T10:58:32.924Z,8.78
2019-03-31T10:59:36.607Z,7.10
2019-03-31T11:00:44.554Z,7.37
2019-03-31T11:01:47.713Z,9.30
2019-03-31T11:02:52.818Z,7.67
2019-03-31T11:03:56.536Z,9.55
2019-03-31T11:05:00.370Z,10.82
2019-03-31T11:06:04.018Z,7.62
2019-03-31T11:07:07.670Z,8.40
2019-03-31T11:08:11.304Z,9.10
2019-03-31T11:09:14.894Z,7.65
2019-03-31T11:10:21.318Z,7.47
2019-03-31T11:11:24.939Z,9.23
2019-03-31T11:12:28.636Z,7.50
2019-03-31T11:13:33.145Z,9.05
2019-03-31T11:14:36.792Z,7.10
2019-03-31T11:15:44.913Z,7.17
2019-03-31T11:16:50.134Z,6.83
2019-03-31T11:17:53.756Z,5.22
2019-03-31T11:18:57.406Z,5.72
2019-03-31T11:20:01.451Z,5.28
2019-03-31T11:21:08.386Z,7.28
2019-03-31T11:22:13.681Z,5.17
2019-03-31T11:23:21.805Z,7.85
2019-03-31T11:24:25.463Z,7.37
2019-03-31T11:25:30.057Z,5.58
2019-03-31T11:26:36.817Z,8.10
2019-03-31T11:27:43.730Z,5.97
2019-03-31T11:28:45.904Z,5.85
2019-03-31T11:29:49.549Z,7.28
2019-03-31T11:30:53.355Z,6.47
2019-03-31T11:31:56.971Z,8.18
2019-03-31T11:33:02.063Z,5.70
2019-03-31T11:34:05.774Z,5.95
2019-03-31T11:35:10.973Z,5.35
2019-03-31T11:36:14.625Z,9.03
2019-03-31T11:37:18.317Z,6.00
2019-03-31T11:38:21.961Z,7.62
2019-03-31T11:39:25.557Z,6.37
2019-03-31T11:40:29.206Z,5.60
2019-03-31T11:41:34.714Z,6.08
2019-03-31T11:42:40.373Z,6.67
2019-03-31T11:43:45.761Z,6.28
2019-03-31T11:44:53.186Z,9.18
2019-03-31T11:45:56.785Z,6.65
2019-03-31T11:47:00.527Z,6.50
2019-03-31T11:48:04.425Z,6.47
2019-03-31T11:49:08.097Z,9.20
2019-03-31T11:50:15.401Z,9.20
2019-03-31T11:51:19.189Z,8.10
2019-03-31T11:52:22.841Z,8.18
2019-03-31T11:53:30.662Z,5.67
2019-03-31T11:54:35.337Z,5.97
2019-03-31T11:55:38.954Z,5.83
2019-03-31T11:56:42.605Z,7.05
2019-03-31T11:57:46.372Z,7.22
2019-03-31T11:58:51.540Z,6.45
2019-03-31T11:59:58.217Z,6.37
2019-03-31T12:01:01.897Z,5.90
2019-03-31T12:02:07.589Z,8.93
2019-03-31T12:03:10.919Z,7.08
2019-03-31T12:04:14.615Z,5.40
2019-03-31T12:05:18.369Z,6.28
2019-03-31T12:06:33.543Z,5.65
2019-03-31T12:07:46.046Z,6.45
2019-03-31T12:08:38.143Z,7.15
2019-03-31T12:09:41.843Z,6.28
2019-03-31T12:10:45.649Z,6.55
2019-03-31T12:11:50.963Z,6.87
2019-03-31T12:12:56.079Z,6.20
2019-03-31T12:13:59.732Z,5.90
2019-03-31T12:15:03.436Z,7.47
2019-03-31T12:16:08.747Z,6.72
2019-03-31T12:17:12.398Z,8.38
2019-03-31T12:18:38.108Z,7.85
2019-03-31T12:19:41.801Z,7.75
2019-03-31T12:20:47.028Z,10.15
2019-03-31T12:21:53.694Z,8.55
2019-03-31T12:23:00.242Z,5.87
2019-03-31T12:24:04.419Z,6.42
2019-03-31T12:25:08.938Z,6.40
2019-03-31T12:26:12.556Z,5.75
2019-03-31T12:27:16.205Z,7.47
2019-03-31T12:28:22.936Z,10.68
2019-03-31T12:29:26.540Z,11.60
2019-03-31T12:30:30.392Z,7.80
2019-03-31T12:31:34.396Z,7.28
2019-03-31T12:32:41.830Z,6.15
2019-03-31T12:33:45.521Z,7.42
2019-03-31T12:34:49.252Z,6.33
2019-03-31T12:35:52.978Z,6.47
2019-03-31T12:36:56.655Z,6.70
2019-03-31T12:38:00.712Z,7.22
2019-03-31T12:39:06.775Z,6.95
2019-03-31T12:40:33.556Z,6.42
2019-03-31T12:41:37.212Z,6.08
2019-03-31T12:42:40.896Z,7.08
2019-03-31T12:43:44.551Z,11.30
2019-03-31T12:44:48.210Z,5.75
2019-03-31T12:45:51.855Z,8.00
2019-03-31T12:46:56.374Z,6.12
2019-03-31T12:48:01.357Z,5.45
2019-03-31T12:49:05.715Z,6.67
2019-03-31T12:50:11.026Z,7.22
2019-03-31T12:51:14.676Z,4.97
2019-03-31T12:52:19.976Z,4.62
2019-03-31T12:53:23.636Z,4.60
2019-03-31T12:54:27.289Z,5.83
2019-03-31T12:55:31.027Z,5.30
2019-03-31T12:56:34.675Z,5.17
2019-03-31T12:57:41.375Z,6.33
2019-03-31T12:58:45.033Z,4.28
2019-03-31T12:59:48.670Z,5.45
2019-03-31T13:00:52.712Z,5.22
2019-03-31T13:01:56.361Z,4.10
2019-03-31T13:03:00.036Z,6.33
2019-03-31T13:04:03.826Z,6.15
2019-03-31T13:05:07.581Z,7.67
2019-03-31T13:06:11.242Z,5.35
2019-03-31T13:07:15.163Z,4.28
2019-03-31T13:08:18.956Z,5.25
2019-03-31T13:09:22.681Z,4.28
2019-03-31T13:10:26.347Z,3.55
2019-03-31T13:11:30.067Z,4.58
2019-03-31T13:12:35.097Z,5.58
2019-03-31T13:13:39.096Z,7.95
2019-03-31T13:14:42.744Z,6.78
2019-03-31T13:15:46.464Z,4.87
2019-03-31T13:16:50.115Z,4.35
2019-03-31T13:17:53.866Z,4.25
2019-03-31T13:18:57.529Z,7.37
2019-03-31T13:20:01.176Z,4.95
2019-03-31T13:21:04.923Z,3.75
2019-03-31T13:22:08.570Z,6.92
2019-03-31T13:23:12.258Z,4.65
2019-03-31T13:24:15.971Z,4.83
2019-03-31T13:25:20.007Z,10.88
2019-03-31T13:26:23.599Z,5.65
2019-03-31T13:27:31.612Z,8.73
2019-03-31T13:28:37.994Z,8.93
2019-03-31T13:29:43.374Z,3.60
2019-03-31T13:30:47.020Z,5.42
2019-03-31T13:31:50.664Z,4.12
2019-03-31T13:32:54.274Z,5.35
2019-03-31T13:33:58.019Z,4.15
2019-03-31T13:35:01.725Z,5.83
2019-03-31T13:36:05.560Z,4.92
2019-03-31T13:37:09.149Z,7.17
2019-03-31T13:38:12.988Z,8.13
2019-03-31T13:39:16.675Z,8.63
2019-03-31T13:40:21.184Z,10.68
2019-03-31T13:41:24.840Z,4.40
2019-03-31T13:42:28.424Z,6.62
2019-03-31T13:43:32.076Z,5.70
2019-03-31T13:44:35.822Z,8.43
2019-03-31T13:45:39.509Z,6.37
2019-03-31T13:46:43.172Z,8.50
2019-03-31T13:47:46.832Z,7.53
2019-03-31T13:48:50.421Z,5.97
2019-03-31T13:49:53.987Z,6.70
2019-03-31T13:50:57.667Z,5.60
2019-03-31T13:52:01.745Z,6.10
2019-03-31T13:53:07.053Z,8.45
2019-03-31T13:54:10.764Z,5.97
2019-03-31T13:55:14.741Z,4.67
2019-03-31T13:56:19.550Z,7.87
2019-03-31T13:57:24.292Z,7.95
2019-03-31T13:58:28.978Z,6.47